createdAt,value
2019-02-07T00:00:56.313Z,-1.45
2019-02-07T00:03:35.489Z,-1.42
2019-02-07T00:06:12.612Z,-1.60
2019-02-07T00:08:45.871Z,-1.50
2019-02-07T00:11:17.409Z,-1.44
2019-02-07T00:13:48.492Z,-1.23
2019-02-07T00:16:19.625Z,-1.43
2019-02-07T00:19:20.332Z,-1.33
2019-02-07T00:21:50.666Z,-1.01
2019-02-07T00:24:22.274Z,-0.90
2019-02-07T00:27:18.641Z,-1.34
2019-02-07T00:29:48.965Z,-1.30
2019-02-07T00:32:19.961Z,-1.31
2019-02-07T00:38:39.819Z,-1.38
2019-02-07T00:41:18.469Z,-1.38
2019-02-07T00:44:07.100Z,-1.39
2019-02-07T00:46:37.807Z,-1.43
2019-02-07T00:49:08.863Z,-1.43
2019-02-07T00:51:39.187Z,-1.29
2019-02-07T00:54:09.822Z,-1.37
2019-02-07T00:56:41.226Z,-1.36
2019-02-07T00:59:12.316Z,-1.33
2019-02-07T01:01:43.664Z,-1.19
2019-02-07T01:04:14.308Z,-1.20
2019-02-07T01:06:45.733Z,-1.26
2019-02-07T01:09:18.455Z,-1.22
2019-02-07T01:11:49.463Z,-1.17
2019-02-07T01:14:20.511Z,-1.16
2019-02-07T01:16:51.661Z,-1.15
2019-02-07T01:19:22.784Z,-1.23
2019-02-07T01:22:15.593Z,-1.12
2019-02-07T01:24:49.989Z,-1.13
2019-02-07T01:27:21.760Z,-1.18
2019-02-07T01:29:53.170Z,-1.20
2019-02-07T01:32:24.221Z,-1.17
2019-02-07T01:34:55.000Z,-1.19
2019-02-07T01:37:38.877Z,-1.22
2019-02-07T01:40:13.899Z,-1.17
2019-02-07T01:42:44.897Z,-1.16
2019-02-07T01:45:19.130Z,-1.08
2019-02-07T01:47:50.148Z,-1.16
2019-02-07T01:50:23.493Z,-1.03
2019-02-07T01:52:55.182Z,-1.07
2019-02-07T01:55:25.889Z,-1.12
2019-02-07T01:57:57.338Z,-1.03
2019-02-07T02:00:28.141Z,-0.98
2019-02-07T03:02:02.306Z,-1.24
2019-02-07T03:04:57.363Z,-1.17
2019-02-07T03:07:46.463Z,-1.18
2019-02-07T03:10:31.667Z,-1.14
2019-02-07T03:13:20.380Z,-1.20
2019-02-07T03:16:01.481Z,-1.12
2019-02-07T03:18:50.758Z,-1.07
2019-02-07T03:21:55.969Z,-1.10
2019-02-07T03:24:40.782Z,-1.07
2019-02-07T03:27:22.845Z,-1.06
2019-02-07T03:30:11.420Z,-1.03
2019-02-07T03:32:59.451Z,-1.03
2019-02-07T03:35:44.357Z,-0.94
2019-02-07T03:38:40.320Z,-0.99
2019-02-07T03:41:39.709Z,-0.97
2019-02-07T03:44:34.249Z,-0.94
2019-02-07T03:47:15.001Z,-0.91
2019-02-07T03:49:59.553Z,-0.95
2019-02-07T03:52:40.823Z,-0.80
2019-02-07T03:55:42.199Z,-0.92
2019-02-07T03:58:21.583Z,-0.95
2019-02-07T04:01:10.302Z,-1.02
2019-02-07T04:03:58.811Z,-0.93
2019-02-07T04:06:48.701Z,-0.94
2019-02-07T04:09:44.779Z,-0.96
2019-02-07T04:12:37.567Z,-0.95
2019-02-07T04:15:24.379Z,-0.93
2019-02-07T04:18:22.485Z,-0.91
2019-02-07T04:21:12.459Z,-0.93
2019-02-07T04:24:00.469Z,-0.79
2019-02-07T04:26:59.591Z,-0.90
2019-02-07T04:29:51.609Z,-0.93
2019-02-07T04:32:32.090Z,-0.98
2019-02-07T04:35:24.116Z,-0.97
2019-02-07T04:38:28.874Z,-0.87
2019-02-07T04:41:21.315Z,-0.82
2019-02-07T04:44:04.263Z,-0.91
2019-02-07T04:47:12.125Z,-1.04
2019-02-07T04:49:54.177Z,-1.08
2019-02-07T04:52:46.075Z,-1.11
2019-02-07T04:55:39.961Z,-1.14
2019-02-07T04:58:28.455Z,-1.03
2019-02-07T05:01:20.466Z,-1.12
2019-02-07T05:04:11.067Z,-1.19
2019-02-07T05:07:07.552Z,-1.25
2019-02-07T05:09:49.057Z,-1.26
2019-02-07T05:12:36.747Z,-1.26
2019-02-07T05:15:29.222Z,-1.29
2019-02-07T05:18:22.150Z,-1.23
2019-02-07T05:21:02.025Z,-1.16
2019-02-07T05:23:52.279Z,-1.16
2019-02-07T05:27:35.214Z,-1.08
2019-02-07T05:30:46.301Z,-1.08
2019-02-07T05:33:48.548Z,-1.14
2019-02-07T05:36:35.099Z,-1.15
2019-02-07T05:39:40.523Z,-1.14
2019-02-07T05:42:32.941Z,-1.14
2019-02-07T05:45:30.364Z,-1.12
2019-02-07T05:48:23.586Z,-1.05
2019-02-07T05:51:16.099Z,-1.06
2019-02-07T05:54:05.078Z,-0.99
2019-02-07T05:57:23.070Z,-1.09
2019-02-07T06:00:18.550Z,-1.05
2019-02-07T06:03:05.762Z,-0.91
2019-02-07T06:05:58.912Z,-1.14
2019-02-07T06:08:47.375Z,-1.12
2019-02-07T06:11:33.141Z,-1.02
2019-02-07T06:14:22.771Z,-0.97
2019-02-07T06:17:25.480Z,-1.02
2019-02-07T06:20:15.955Z,-1.01
2019-02-07T06:23:12.324Z,-1.08
2019-02-07T06:25:53.407Z,-1.06
2019-02-07T06:28:34.919Z,-1.10
2019-02-07T06:31:23.033Z,-1.00
2019-02-07T06:34:07.659Z,-1.01
2019-02-07T06:37:05.809Z,-0.98
2019-02-07T06:39:56.277Z,-0.97
2019-02-07T06:42:48.676Z,-0.97
2019-02-07T06:45:44.367Z,-0.98
2019-02-07T06:48:49.385Z,-1.06
2019-02-07T06:51:31.177Z,-1.06
2019-02-07T06:54:16.490Z,-1.01
2019-02-07T06:57:22.908Z,-0.95
2019-02-07T07:00:11.897Z,-1.01
2019-02-07T07:02:57.357Z,-1.03
2019-02-07T07:05:46.991Z,-1.07
2019-02-07T07:08:43.699Z,-1.10
2019-02-07T07:11:37.736Z,-1.08
2019-02-07T07:14:26.086Z,-1.08
2019-02-07T07:17:25.875Z,-1.01
2019-02-07T07:20:16.975Z,-0.98
2019-02-07T07:23:12.725Z,-0.88
2019-02-07T07:26:01.930Z,-0.87
2019-02-07T07:28:51.958Z,-0.76
2019-02-07T07:31:39.513Z,-0.68
2019-02-07T07:34:21.560Z,-0.66
2019-02-07T07:37:13.910Z,-0.64
2019-02-07T07:40:09.588Z,-0.61
2019-02-07T07:43:02.641Z,-0.38
2019-02-07T07:45:55.997Z,-0.30
2019-02-07T07:48:46.446Z,-0.36
2019-02-07T07:51:36.033Z,-0.31
2019-02-07T07:54:26.482Z,-0.16
2019-02-07T07:57:14.760Z,-0.04
2019-02-07T08:00:22.421Z,0.01
2019-02-07T08:03:15.977Z,0.02
2019-02-07T08:06:04.737Z,0.13
2019-02-07T08:09:18.820Z,0.28
2019-02-07T08:12:23.695Z,0.43
2019-02-07T08:15:26.011Z,0.34
2019-02-07T08:18:21.983Z,0.33
2019-02-07T08:21:21.342Z,0.10
2019-02-07T08:24:14.105Z,0.32
2019-02-07T08:27:22.307Z,0.32
2019-02-07T08:30:11.576Z,0.76
2019-02-07T08:33:01.128Z,0.68
2019-02-07T08:35:53.828Z,0.56
2019-02-07T08:38:46.203Z,0.85
2019-02-07T08:41:34.113Z,0.60
2019-02-07T08:45:29.915Z,0.90
2019-02-07T08:48:18.891Z,1.30
2019-02-07T08:51:08.007Z,1.45
2019-02-07T08:53:57.297Z,1.21
2019-02-07T08:56:43.682Z,1.33
2019-02-07T08:59:42.718Z,1.03
2019-02-07T09:02:51.366Z,0.87
2019-02-07T09:05:31.540Z,0.93
2019-02-07T09:08:36.924Z,0.74
2019-02-07T09:11:25.347Z,0.98
2019-02-07T09:14:18.523Z,0.79
2019-02-07T09:17:17.812Z,1.29
2019-02-07T09:20:15.369Z,1.70
2019-02-07T09:23:07.678Z,1.79
2019-02-07T09:25:57.834Z,1.86
2019-02-07T09:28:37.926Z,1.89
2019-02-07T09:31:26.062Z,1.74
2019-02-07T09:34:14.304Z,2.40
2019-02-07T09:37:12.808Z,2.66
2019-02-07T09:40:08.360Z,3.13
2019-02-07T09:42:45.431Z,2.90
2019-02-07T09:45:38.808Z,2.87
2019-02-07T09:48:34.723Z,2.70
2019-02-07T09:51:16.138Z,2.96
2019-02-07T09:54:02.335Z,2.84
2019-02-07T09:57:35.192Z,2.45
2019-02-07T10:00:19.034Z,2.82
2019-02-07T10:03:11.776Z,3.49
2019-02-07T10:06:00.058Z,3.31
2019-02-07T10:09:29.837Z,3.13
2019-02-07T10:12:15.642Z,3.03
2019-02-07T10:15:10.993Z,2.80
2019-02-07T10:17:57.246Z,3.12
2019-02-07T10:20:46.000Z,3.07
2019-02-07T10:23:29.107Z,2.99
2019-02-07T10:26:17.430Z,3.34
2019-02-07T10:29:17.324Z,3.47
2019-02-07T10:32:00.511Z,3.32
2019-02-07T10:35:05.875Z,3.86
2019-02-07T10:37:54.918Z,4.97
2019-02-07T10:40:43.497Z,5.34
2019-02-07T10:43:35.288Z,5.54
2019-02-07T10:46:45.493Z,5.74
2019-02-07T10:49:34.399Z,5.40
2019-02-07T10:52:22.984Z,5.11
2019-02-07T10:55:13.781Z,4.88
2019-02-07T10:58:05.521Z,3.87
2019-02-07T11:00:56.037Z,3.66
2019-02-07T11:03:56.049Z,3.82
2019-02-07T11:06:50.724Z,3.81
2019-02-07T11:09:58.700Z,3.01
2019-02-07T11:12:54.479Z,2.78
2019-02-07T11:15:43.392Z,2.63
2019-02-07T11:18:32.761Z,2.52
2019-02-07T11:21:35.429Z,2.38
2019-02-07T11:24:24.728Z,2.15
2019-02-07T11:27:15.063Z,2.05
2019-02-07T11:30:04.495Z,2.17
2019-02-07T11:32:50.811Z,2.28
2019-02-07T11:35:34.225Z,2.39
2019-02-07T11:38:22.600Z,2.47
2019-02-07T11:41:15.319Z,2.48
2019-02-07T11:44:05.615Z,2.40
2019-02-07T11:47:15.930Z,2.54
2019-02-07T11:50:04.764Z,2.29
2019-02-07T11:53:03.424Z,2.11
2019-02-07T11:56:05.363Z,1.92
2019-02-07T11:58:54.038Z,1.82
2019-02-07T12:01:35.865Z,1.72
2019-02-07T12:04:32.812Z,1.76
2019-02-07T12:07:22.064Z,1.91
2019-02-07T12:10:11.967Z,2.03
2019-02-07T12:13:32.130Z,1.87
2019-02-07T12:16:29.261Z,1.85
2019-02-07T12:19:23.481Z,1.82
2019-02-07T12:22:23.673Z,1.75
2019-02-07T12:25:19.263Z,1.82
2019-02-07T12:28:07.899Z,1.82
2019-02-07T12:31:03.367Z,1.97
2019-02-07T12:33:50.278Z,1.68
2019-02-07T12:36:39.431Z,1.81
2019-02-07T12:39:44.270Z,1.85
2019-02-07T12:42:32.152Z,1.88
2019-02-07T12:45:28.955Z,2.08
2019-02-07T12:48:25.926Z,2.33
2019-02-07T12:51:07.894Z,2.08
2019-02-07T12:53:46.336Z,2.12
2019-02-07T12:56:35.182Z,2.13
2019-02-07T12:59:24.738Z,2.15
2019-02-07T13:02:14.562Z,2.03
2019-02-07T13:05:04.114Z,2.17
2019-02-07T13:08:03.827Z,2.39
2019-02-07T13:10:52.084Z,2.39
2019-02-07T13:13:53.037Z,2.47
2019-02-07T13:16:54.602Z,2.25
2019-02-07T13:19:50.340Z,2.44
2019-02-07T13:22:34.240Z,2.33
2019-02-07T13:25:30.938Z,2.48
2019-02-07T13:28:16.046Z,2.32
2019-02-07T13:31:12.191Z,2.47
2019-02-07T13:33:57.671Z,2.58
2019-02-07T13:36:46.743Z,2.59
2019-02-07T13:39:33.136Z,2.58
2019-02-07T13:42:41.393Z,2.71
2019-02-07T13:45:32.460Z,2.73
2019-02-07T13:48:37.118Z,2.77
2019-02-07T13:51:25.766Z,2.83
2019-02-07T13:54:10.900Z,2.80
2019-02-07T13:56:58.284Z,2.90
2019-02-07T13:59:48.714Z,2.98
2019-02-07T14:03:00.100Z,2.97
2019-02-07T14:05:55.812Z,3.03
2019-02-07T14:08:38.302Z,3.14
2019-02-07T14:11:27.181Z,3.13
2019-02-07T14:14:20.460Z,3.11
2019-02-07T14:17:22.130Z,3.11
2019-02-07T14:20:18.445Z,3.20
2019-02-07T14:23:11.149Z,3.42
2019-02-07T14:26:00.382Z,3.35
2019-02-07T14:28:48.367Z,3.25
2019-02-07T14:31:37.964Z,3.15
2019-02-07T14:34:20.309Z,3.20
2019-02-07T14:37:16.476Z,3.14
2019-02-07T14:40:03.616Z,3.19
2019-02-07T14:42:59.063Z,3.22
2019-02-07T14:45:48.107Z,3.19
2019-02-07T14:48:26.620Z,3.03
2019-02-07T14:51:07.843Z,3.02
2019-02-07T14:53:39.375Z,2.82
2019-02-07T14:59:58.585Z,2.77
2019-02-07T15:02:35.432Z,2.62
2019-02-07T15:05:07.847Z,2.70
2019-02-07T15:07:38.818Z,2.73
2019-02-07T15:10:13.583Z,2.72
2019-02-07T15:12:49.829Z,2.63
2019-02-07T15:15:21.635Z,2.51
2019-02-07T15:17:52.921Z,2.59
2019-02-07T15:20:42.403Z,2.61
2019-02-07T15:23:13.064Z,2.67
2019-02-07T15:25:44.467Z,2.78
2019-02-07T15:28:15.631Z,2.76
2019-02-07T15:30:46.946Z,2.69
2019-02-07T15:33:18.269Z,2.71
2019-02-07T15:35:51.919Z,2.81
2019-02-07T15:38:22.983Z,2.80
2019-02-07T15:41:13.865Z,2.75
2019-02-07T15:43:45.621Z,2.66
2019-02-07T15:46:16.863Z,2.67
2019-02-07T15:48:48.600Z,2.58
2019-02-07T15:51:20.358Z,2.64
2019-02-07T15:53:51.574Z,2.67
2019-02-07T15:56:24.516Z,2.65
2019-02-07T15:59:17.250Z,2.72
2019-02-07T16:02:13.779Z,2.71
2019-02-07T16:04:46.270Z,2.75
2019-02-07T16:07:17.871Z,2.80
2019-02-07T16:09:49.545Z,2.71
2019-02-07T16:12:20.304Z,2.71
2019-02-07T16:15:08.270Z,2.66
2019-02-07T16:17:39.643Z,2.63
2019-02-07T16:20:15.451Z,2.68
2019-02-07T16:22:47.459Z,2.74
2019-02-07T16:25:19.365Z,2.79
2019-02-07T16:27:51.330Z,2.81
2019-02-07T16:30:24.310Z,2.80
2019-02-07T16:32:55.268Z,2.81
2019-02-07T16:35:26.569Z,2.84
2019-02-07T16:37:57.487Z,2.86
2019-02-07T16:40:28.795Z,2.88
2019-02-07T16:42:59.843Z,2.89
2019-02-07T16:45:33.153Z,2.89
2019-02-07T16:48:04.913Z,2.88
2019-02-07T16:50:38.291Z,2.80
2019-02-07T16:53:09.211Z,2.71
2019-02-07T16:55:58.901Z,2.64
2019-02-07T16:58:30.139Z,2.69
2019-02-07T17:01:01.260Z,2.78
2019-02-07T17:03:32.636Z,2.75
2019-02-07T17:06:03.564Z,2.79
2019-02-07T17:08:35.141Z,2.82
2019-02-07T17:11:06.771Z,2.75
2019-02-07T17:13:38.100Z,2.77
2019-02-07T17:16:09.363Z,2.79
2019-02-07T17:18:41.592Z,2.83
2019-02-07T17:21:12.942Z,2.82
2019-02-07T17:23:43.793Z,2.84
2019-02-07T17:26:21.343Z,2.86
2019-02-07T17:28:52.490Z,2.90
2019-02-07T17:31:23.502Z,2.89
2019-02-07T17:33:55.347Z,2.91
2019-02-07T17:36:26.384Z,2.90
2019-02-07T17:38:56.792Z,2.90
2019-02-07T17:41:27.849Z,2.86
2019-02-07T17:43:59.871Z,2.86
2019-02-07T17:46:37.928Z,2.84
2019-02-07T17:49:14.614Z,2.87
2019-02-07T17:51:45.983Z,2.92
2019-02-07T17:54:20.389Z,2.97
2019-02-07T17:56:53.346Z,2.90
2019-02-07T17:59:26.885Z,2.95
2019-02-07T18:01:58.223Z,3.01
2019-02-07T18:04:30.690Z,3.03
2019-02-07T18:07:04.893Z,3.07
2019-02-07T18:09:38.631Z,3.14
2019-02-07T18:12:39.957Z,3.23
2019-02-07T18:15:20.941Z,3.67
2019-02-07T18:17:58.829Z,3.89
2019-02-07T18:20:33.614Z,4.04
2019-02-07T18:23:05.518Z,3.94
2019-02-07T18:25:40.444Z,3.87
2019-02-07T18:28:13.457Z,3.83
2019-02-07T18:30:45.145Z,3.81
2019-02-07T18:33:30.455Z,3.78
2019-02-07T18:37:01.667Z,3.78
2019-02-07T18:39:55.298Z,3.74
2019-02-07T18:42:34.857Z,3.83
2019-02-07T18:45:14.068Z,3.93
2019-02-07T18:47:47.568Z,4.03
2019-02-07T18:50:32.811Z,4.04
2019-02-07T18:53:05.012Z,4.02
2019-02-07T18:55:47.524Z,3.98
2019-02-07T18:58:25.231Z,3.95
2019-02-07T19:01:01.253Z,3.92
2019-02-07T19:03:33.030Z,3.90
2019-02-07T19:06:43.159Z,3.89
2019-02-07T19:09:24.211Z,3.89
2019-02-07T19:12:09.864Z,3.86
2019-02-07T19:14:45.785Z,3.84
2019-02-07T19:17:57.179Z,3.74
2019-02-07T19:20:28.190Z,3.71
2019-02-07T19:23:04.158Z,3.71
2019-02-07T19:25:35.813Z,3.68
2019-02-07T19:28:31.516Z,3.68
2019-02-07T19:31:06.349Z,3.72
2019-02-07T19:33:55.612Z,3.70
2019-02-07T19:36:33.576Z,3.70
2019-02-07T19:39:13.460Z,3.69
2019-02-07T19:41:52.380Z,3.67
2019-02-07T19:44:26.483Z,3.64
2019-02-07T19:47:11.480Z,3.63
2019-02-07T19:49:46.130Z,3.70
2019-02-07T19:52:26.241Z,3.67
2019-02-07T19:54:59.150Z,3.67
2019-02-07T19:57:33.370Z,3.68
2019-02-07T20:00:31.234Z,3.65
2019-02-07T20:03:19.700Z,3.59
2019-02-07T20:05:52.852Z,3.54
2019-02-07T20:08:37.382Z,3.58
2019-02-07T20:11:13.877Z,3.58
2019-02-07T20:16:46.784Z,3.71
2019-02-07T20:19:21.257Z,3.71
2019-02-07T20:21:56.709Z,3.80
2019-02-07T20:24:45.420Z,3.86
2019-02-07T20:27:08.402Z,3.87
2019-02-07T20:29:43.049Z,3.89
2019-02-07T20:32:16.971Z,4.04
2019-02-07T20:34:52.263Z,4.04
2019-02-07T20:37:31.127Z,4.05
2019-02-07T20:40:02.618Z,3.91
2019-02-07T20:42:38.092Z,3.88
2019-02-07T20:45:12.671Z,3.94
2019-02-07T20:47:44.239Z,3.91
2019-02-07T20:50:22.116Z,3.91
2019-02-07T20:52:58.948Z,3.88
2019-02-07T20:55:36.563Z,3.89
2019-02-07T20:58:07.735Z,3.81
2019-02-07T21:00:46.584Z,3.83
2019-02-07T21:03:43.959Z,3.84
2019-02-07T21:06:17.958Z,3.87
2019-02-07T21:09:06.599Z,3.87
2019-02-07T21:11:45.689Z,3.84
2019-02-07T21:14:24.337Z,3.80
2019-02-07T21:16:55.809Z,3.75
2019-02-07T21:19:26.499Z,3.74
2019-02-07T21:22:00.852Z,3.76
2019-02-07T21:24:32.156Z,3.67
2019-02-07T21:27:04.882Z,3.64
2019-02-07T21:29:35.974Z,3.55
2019-02-07T21:32:07.459Z,3.66
2019-02-07T21:34:59.888Z,3.62
2019-02-07T21:37:30.949Z,3.63
2019-02-07T21:40:02.441Z,3.66
2019-02-07T21:42:34.471Z,3.69
2019-02-07T21:45:06.362Z,3.71
2019-02-07T21:47:37.629Z,3.67
2019-02-07T21:50:12.716Z,3.67
2019-02-07T21:52:43.742Z,3.71
2019-02-07T21:55:17.257Z,3.66
2019-02-07T21:57:48.950Z,3.83
2019-02-07T22:00:40.350Z,4.02
2019-02-07T22:03:16.834Z,4.12
2019-02-07T22:05:48.796Z,4.11
2019-02-07T22:08:20.626Z,4.31
2019-02-07T22:10:51.639Z,4.31
2019-02-07T22:13:22.658Z,4.21
2019-02-07T22:15:53.907Z,4.31
2019-02-07T22:18:32.746Z,4.38
2019-02-07T22:21:03.762Z,4.37
2019-02-07T22:23:34.925Z,4.24
2019-02-07T22:26:06.294Z,4.15
2019-02-07T22:28:38.051Z,4.13
2019-02-07T22:31:09.258Z,4.06
2019-02-07T22:33:40.935Z,4.04
2019-02-07T22:36:12.852Z,4.16
2019-02-07T22:39:08.565Z,4.15
2019-02-07T22:41:39.213Z,4.09
2019-02-07T22:44:10.459Z,4.23
2019-02-07T22:46:41.905Z,4.14
2019-02-07T22:49:13.641Z,4.19
2019-02-07T22:52:04.085Z,4.20
2019-02-07T22:54:35.744Z,4.15
2019-02-07T22:57:07.254Z,4.16
2019-02-07T22:59:38.619Z,4.20
2019-02-07T23:02:10.374Z,4.00
2019-02-07T23:04:42.026Z,3.88
2019-02-07T23:07:13.057Z,3.79
2019-02-07T23:09:43.888Z,3.94
2019-02-07T23:12:15.212Z,3.89
2019-02-07T23:14:46.756Z,3.87
2019-02-07T23:17:18.265Z,3.90
2019-02-07T23:19:49.009Z,3.91
2019-02-07T23:22:19.730Z,4.05
2019-02-07T23:24:50.854Z,4.21
2019-02-07T23:27:22.318Z,4.18
2019-02-07T23:29:53.898Z,4.18
2019-02-07T23:32:25.319Z,4.21
2019-02-07T23:34:57.405Z,4.02
2019-02-07T23:37:28.834Z,3.82
2019-02-07T23:40:00.299Z,3.93
2019-02-07T23:42:31.424Z,4.03
2019-02-07T23:45:02.467Z,4.00
2019-02-07T23:47:34.031Z,3.96
2019-02-07T23:50:04.508Z,3.91
2019-02-07T23:52:35.597Z,3.88
2019-02-07T23:55:07.249Z,3.83
2019-02-07T23:57:38.476Z,3.84
